Time;durP1;ratioP1;P1;durP2;ratioP2;P2;SDS_P1;SDS_P2;PMS_P1;PMS_P2;Temp;Humidity;BMP_temperature;BMP_pressure;BME280_temperature;BME280_humidity;BME280_pressure;Samples;Min_cycle;Max_cycle;Signal;HPM_P1;HPM_P2
2024/04/10 00:02:17;;;;;;;12.80;3.63;;;;;;;13.41;63.89;102067.75;5483107;26;20078;-44
2024/04/10 00:04:45;;;;;;;15.63;3.70;;;;;;;13.61;64.69;102057.66;5485497;26;20013;-47
2024/04/10 00:07:11;;;;;;;10.32;3.13;;;;;;;13.29;65.80;102065.75;5486673;26;19998;-44
2024/04/10 00:09:37;;;;;;;15.65;3.63;;;;;;;13.43;65.34;102065.13;5486581;26;20340;-44
2024/04/10 00:12:02;;;;;;;12.25;3.17;;;;;;;13.61;65.24;102070.75;5486919;26;20001;-44
2024/04/10 00:14:28;;;;;;;13.00;3.33;;;;;;;13.51;65.46;102071.44;5487026;26;20441;-46
2024/04/10 00:16:54;;;;;;;13.18;3.30;;;;;;;13.63;65.76;102071.69;5486196;26;20008;-44
2024/04/10 00:19:20;;;;;;;13.32;2.97;;;;;;;13.48;66.12;102071.38;5487686;26;20005;-46
2024/04/10 00:21:47;;;;;;;18.60;3.30;;;;;;;13.38;66.10;102080.78;5484587;26;20014;-44
2024/04/10 00:24:13;;;;;;;13.32;3.47;;;;;;;13.56;66.11;102073.28;5486356;26;19998;-45
2024/04/10 00:26:39;;;;;;;12.95;3.72;;;;;;;13.42;66.26;102085.22;5484464;26;20012;-47
2024/04/10 00:29:04;;;;;;;18.63;3.60;;;;;;;13.49;66.37;102091.47;5486770;26;19998;-46
2024/04/10 00:31:30;;;;;;;13.68;3.25;;;;;;;13.52;66.10;102092.44;5486680;26;19994;-44
2024/04/10 00:33:55;;;;;;;18.90;3.38;;;;;;;14.04;64.26;102096.06;5486862;26;20484;-48
2024/04/10 00:36:20;;;;;;;16.63;3.58;;;;;;;13.64;65.82;102099.66;5486930;26;20381;-45
2024/04/10 00:38:46;;;;;;;11.82;3.08;;;;;;;13.48;66.01;102102.81;5486229;26;20003;-48
2024/04/10 00:41:12;;;;;;;14.32;2.88;;;;;;;13.73;65.43;102113.81;5486827;26;20034;-46
2024/04/10 00:43:38;;;;;;;14.23;3.10;;;;;;;13.70;65.47;102113.78;5486450;26;20002;-48
2024/04/10 00:46:14;;;;;;;11.77;3.25;;;;;;;13.84;64.57;102118.41;5486544;26;20006;-45
2024/04/10 00:48:41;;;;;;;13.88;3.00;;;;;;;13.66;64.08;102125.03;5485642;26;20367;-48
2024/04/10 00:51:11;;;;;;;13.07;3.05;;;;;;;13.96;62.32;102135.25;5485624;26;19998;-47
2024/04/10 00:53:37;;;;;;;14.20;2.90;;;;;;;13.97;62.04;102134.38;5485623;26;19998;-47
2024/04/10 00:56:04;;;;;;;13.30;2.70;;;;;;;13.57;62.56;102147.53;5486751;26;20002;-48
2024/04/10 00:58:33;;;;;;;10.35;2.97;;;;;;;13.65;61.83;102143.34;5486739;26;20009;-45
2024/04/10 01:01:00;;;;;;;14.07;3.10;;;;;;;13.84;61.30;102150.75;5486517;26;20341;-49
2024/04/10 01:03:25;;;;;;;14.35;3.25;;;;;;;13.62;61.54;102159.88;5486570;26;19998;-46
2024/04/10 01:06:09;;;;;;;12.43;2.72;;;;;;;13.96;60.13;102153.63;5488406;26;20025;-48
2024/04/10 01:08:36;;;;;;;19.85;3.20;;;;;;;14.04;59.73;102157.25;5489010;26;19998;-45
2024/04/10 01:11:04;;;;;;;11.88;2.88;;;;;;;13.69;60.35;102163.53;5488740;26;20005;-45
2024/04/10 01:13:30;;;;;;;14.60;3.08;;;;;;;13.55;61.09;102168.47;5486754;26;20031;-45
2024/04/10 01:15:55;;;;;;;12.40;2.97;;;;;;;13.79;60.14;102168.97;5485962;26;20436;-44
2024/04/10 01:18:21;;;;;;;9.57;2.85;;;;;;;14.02;59.32;102174.72;5488648;26;20009;-44
2024/04/10 01:20:48;;;;;;;13.57;2.80;;;;;;;13.68;59.42;102180.97;5489599;26;20605;-44
2024/04/10 01:23:17;;;;;;;11.10;2.60;;;;;;;13.59;59.80;102172.94;5489390;26;20035;-46
2024/04/10 01:25:43;;;;;;;12.07;2.95;;;;;;;13.51;59.16;102182.34;5485802;26;19998;-44
2024/04/10 01:28:08;;;;;;;9.05;2.92;;;;;;;13.85;58.51;102183.06;5486162;26;20487;-43
2024/04/10 01:30:34;;;;;;;12.20;2.78;;;;;;;13.65;58.39;102188.78;5486558;26;20010;-50
2024/04/10 01:32:59;;;;;;;12.80;2.83;;;;;;;13.74;58.23;102188.09;5487794;26;20002;-48
2024/04/10 01:35:25;;;;;;;13.02;2.75;;;;;;;13.94;58.25;102189.41;5486590;26;20009;-44
2024/04/10 01:37:50;;;;;;;13.40;3.05;;;;;;;13.69;58.46;102195.84;5485313;26;20002;-45
2024/04/10 01:40:15;;;;;;;15.23;2.88;;;;;;;13.46;59.79;102204.06;5485725;26;19994;-44
2024/04/10 01:42:44;;;;;;;16.23;2.83;;;;;;;13.90;59.37;102211.16;5485752;26;19998;-47
2024/04/10 01:45:10;;;;;;;10.02;2.67;;;;;;;13.39;61.34;102214.41;5485620;26;20026;-50
2024/04/10 01:47:35;;;;;;;13.05;3.17;;;;;;;13.67;61.99;102218.50;5484817;26;20594;-44
2024/04/10 01:50:01;;;;;;;12.73;3.25;;;;;;;13.58;62.87;102220.94;5485227;26;19998;-44
2024/04/10 01:52:26;;;;;;;9.98;2.92;;;;;;;13.40;63.04;102217.91;5485970;26;20013;-47
2024/04/10 01:54:52;;;;;;;22.90;3.30;;;;;;;13.15;62.53;102233.88;5485100;26;20002;-45
2024/04/10 01:57:18;;;;;;;14.15;2.90;;;;;;;13.23;63.48;102232.34;5485529;26;20325;-45
2024/04/10 01:59:43;;;;;;;19.13;3.03;;;;;;;13.19;63.84;102231.38;5485063;26;19994;-43
2024/04/10 02:02:09;;;;;;;14.13;2.90;;;;;;;13.35;63.76;102244.00;5485820;26;19995;-47
2024/04/10 02:04:34;;;;;;;11.05;3.03;;;;;;;13.23;62.07;102256.81;5484682;26;20050;-43
2024/04/10 02:07:00;;;;;;;16.95;3.00;;;;;;;12.90;63.78;102245.44;5485117;26;20002;-44
2024/04/10 02:09:25;;;;;;;12.98;2.58;;;;;;;13.58;61.83;102255.00;5485450;26;20014;-45
2024/04/10 02:11:51;;;;;;;12.13;3.08;;;;;;;13.35;62.39;102264.06;5482866;26;19998;-45
2024/04/10 02:14:16;;;;;;;10.60;2.90;;;;;;;13.33;63.13;102260.53;5485122;26;20010;-46
2024/04/10 02:16:43;;;;;;;11.35;2.63;;;;;;;13.51;62.29;102266.19;5484911;26;20002;-50
2024/04/10 02:19:08;;;;;;;13.40;2.65;;;;;;;13.59;62.25;102272.50;5485437;26;20026;-50
2024/04/10 02:21:34;;;;;;;11.13;2.40;;;;;;;13.56;62.30;102276.78;5484412;26;20337;-47
2024/04/10 02:24:00;;;;;;;21.67;3.00;;;;;;;13.39;63.24;102282.50;5484745;26;19994;-45
2024/04/10 02:26:25;;;;;;;11.60;2.63;;;;;;;13.65;63.09;102288.38;5484248;26;20002;-43
2024/04/10 02:28:50;;;;;;;17.50;2.97;;;;;;;13.45;62.44;102288.75;5485254;26;20002;-44
2024/04/10 02:31:15;;;;;;;16.92;2.70;;;;;;;13.40;62.76;102289.53;5485348;26;20336;-44
2024/04/10 02:33:41;;;;;;;13.48;2.78;;;;;;;13.45;61.21;102293.97;5484501;26;20028;-44
2024/04/10 02:36:08;;;;;;;12.75;2.63;;;;;;;13.29;60.34;102304.09;5484373;26;20002;-46
2024/04/10 02:38:35;;;;;;;13.98;2.50;;;;;;;13.31;60.50;102305.00;5484010;26;20013;-46
2024/04/10 02:41:02;;;;;;;16.35;2.88;;;;;;;13.63;59.75;102311.03;5484912;26;20001;-44
2024/04/10 02:43:27;;;;;;;13.25;3.08;;;;;;;13.67;60.10;102319.84;5485218;26;20467;-46
2024/04/10 02:46:03;;;;;;;13.50;2.58;;;;;;;13.59;60.10;102314.44;5484453;26;19998;-45
2024/04/10 02:48:29;;;;;;;13.80;2.95;;;;;;;13.53;58.26;102324.78;5486388;26;19998;-47
2024/04/10 02:50:55;;;;;;;16.45;2.55;;;;;;;13.26;60.09;102324.97;5484231;26;20002;-47
2024/04/10 02:53:21;;;;;;;13.68;2.67;;;;;;;13.74;59.03;102321.75;5484837;26;20433;-49
2024/04/10 02:55:49;;;;;;;15.90;2.70;;;;;;;13.57;59.33;102328.34;5484443;26;19998;-47
2024/04/10 02:58:16;;;;;;;16.70;2.90;;;;;;;13.37;59.50;102330.47;5485198;26;20026;-47
2024/04/10 03:00:44;;;;;;;15.40;2.47;;;;;;;13.36;59.79;102333.91;5484333;26;20449;-49
2024/04/10 03:03:09;;;;;;;12.05;2.58;;;;;;;13.61;58.94;102333.69;5484689;26;20386;-46
2024/04/10 03:05:35;;;;;;;15.40;2.70;;;;;;;13.64;58.11;102335.50;5484342;26;20014;-44
2024/04/10 03:08:00;;;;;;;13.95;2.67;;;;;;;13.58;59.09;102340.59;5484552;26;20006;-46
2024/04/10 03:10:25;;;;;;;14.13;2.45;;;;;;;13.34;59.43;102346.13;5484256;26;20005;-44
2024/04/10 03:12:50;;;;;;;7.32;2.13;;;;;;;13.35;58.88;102342.66;5483968;26;20798;-47
2024/04/10 03:15:16;;;;;;;13.75;2.42;;;;;;;13.96;57.37;102354.63;5484532;26;19998;-48
2024/04/10 03:17:41;;;;;;;11.93;2.50;;;;;;;13.85;57.86;102356.06;5484159;26;20074;-45
2024/04/10 03:20:08;;;;;;;9.00;2.40;;;;;;;13.70;58.49;102359.25;5484513;26;20063;-43
2024/04/10 03:22:34;;;;;;;12.50;2.22;;;;;;;13.75;58.97;102361.13;5482378;26;20017;-50
2024/04/10 03:24:59;;;;;;;10.68;2.60;;;;;;;13.83;57.75;102366.56;5484207;26;19998;-44
2024/04/10 03:27:24;;;;;;;14.25;2.22;;;;;;;13.67;58.31;102362.66;5484594;26;20002;-44
2024/04/10 03:29:50;;;;;;;11.30;2.40;;;;;;;13.53;57.91;102368.44;5485242;26;20013;-43
2024/04/10 03:32:15;;;;;;;9.90;2.30;;;;;;;13.34;58.96;102369.69;5485392;26;20376;-45
2024/04/10 03:34:40;;;;;;;14.27;2.90;;;;;;;13.27;59.29;102375.59;5483964;26;20010;-51
2024/04/10 03:37:06;;;;;;;10.93;2.58;;;;;;;13.74;57.63;102379.41;5483676;26;20030;-46
2024/04/10 03:39:31;;;;;;;9.27;2.42;;;;;;;13.42;58.63;102383.00;5486038;26;20002;-49
2024/04/10 03:41:56;;;;;;;11.18;2.25;;;;;;;13.81;57.51;102387.47;5488054;26;19994;-47
2024/04/10 03:44:22;;;;;;;16.10;2.65;;;;;;;13.61;58.46;102393.94;5488926;26;20002;-44
2024/04/10 03:46:48;;;;;;;16.50;2.47;;;;;;;13.49;57.79;102388.41;5488433;26;20070;-43
2024/04/10 03:49:13;;;;;;;18.45;2.70;;;;;;;13.26;58.58;102397.41;5487963;26;20410;-48
2024/04/10 03:51:38;;;;;;;14.43;2.55;;;;;;;13.17;59.62;102399.78;5485587;26;20456;-44
2024/04/10 03:54:04;;;;;;;13.65;2.70;;;;;;;13.40;58.43;102403.91;5488261;26;20071;-45
2024/04/10 03:56:29;;;;;;;9.90;2.33;;;;;;;13.26;58.97;102406.16;5487319;26;20006;-45
2024/04/10 03:58:54;;;;;;;12.15;2.30;;;;;;;13.50;57.49;102420.72;5487274;26;20785;-44
2024/04/10 04:01:20;;;;;;;14.57;2.58;;;;;;;13.15;59.26;102425.94;5487297;26;20009;-49
2024/04/10 04:03:45;;;;;;;15.38;2.33;;;;;;;13.05;60.26;102420.38;5487187;26;19998;-45
2024/04/10 04:06:10;;;;;;;9.73;2.45;;;;;;;13.46;58.15;102425.03;5487784;26;20067;-45
2024/04/10 04:08:36;;;;;;;15.63;2.53;;;;;;;13.17;59.20;102431.22;5487429;26;19998;-45
2024/04/10 04:11:04;;;;;;;15.48;2.42;;;;;;;12.79;60.63;102438.84;5487396;26;19994;-45
2024/04/10 04:13:30;;;;;;;13.20;2.60;;;;;;;12.90;61.37;102442.66;5487868;26;19998;-45
2024/04/10 04:15:55;;;;;;;13.18;2.33;;;;;;;13.01;61.00;102442.94;5486157;26;20455;-46
2024/04/10 04:18:20;;;;;;;17.20;2.50;;;;;;;12.88;61.06;102449.56;5454969;26;19998;-46
2024/04/10 04:20:46;;;;;;;11.70;2.30;;;;;;;12.95;60.89;102451.50;5454833;26;20336;-46
2024/04/10 04:23:11;;;;;;;14.20;2.30;;;;;;;13.16;60.19;102466.09;5455718;26;20013;-46
2024/04/10 04:25:37;;;;;;;15.98;2.58;;;;;;;13.28;60.17;102467.34;5484702;26;19998;-46
2024/04/10 04:28:02;;;;;;;16.67;2.60;;;;;;;12.97;61.21;102476.00;5486324;26;19994;-45
2024/04/10 04:30:27;;;;;;;10.23;2.15;;;;;;;13.30;60.32;102483.06;5485119;26;19994;-45
2024/04/10 04:32:54;;;;;;;18.60;2.53;;;;;;;13.29;60.64;102482.22;5484480;26;20018;-46
2024/04/10 04:35:20;;;;;;;12.23;2.30;;;;;;;13.28;60.31;102480.44;5488288;26;20002;-49
2024/04/10 04:37:55;;;;;;;11.82;2.42;;;;;;;13.15;60.84;102487.88;5488148;26;19998;-49
2024/04/10 04:40:20;;;;;;;11.23;1.98;;;;;;;12.94;60.80;102499.47;5485911;26;20078;-46
2024/04/10 04:42:45;;;;;;;12.38;2.13;;;;;;;13.22;59.85;102498.59;5487011;26;20009;-49
2024/04/10 04:45:11;;;;;;;12.80;2.28;;;;;;;13.16;60.12;102502.75;5487258;26;20071;-47
2024/04/10 04:47:37;;;;;;;11.52;2.60;;;;;;;13.24;59.87;102512.59;5486369;26;20411;-44
2024/04/10 04:50:02;;;;;;;16.73;2.22;;;;;;;13.00;60.96;102519.69;5487792;26;20066;-46
2024/04/10 04:52:28;;;;;;;17.25;2.53;;;;;;;12.90;61.17;102523.78;5488240;26;20002;-46
2024/04/10 04:54:53;;;;;;;9.73;2.45;;;;;;;12.96;61.20;102537.06;5487615;26;19998;-45
2024/04/10 04:57:19;;;;;;;12.82;2.50;;;;;;;13.18;60.47;102537.72;5488008;26;20013;-45
2024/04/10 04:59:44;;;;;;;14.98;2.08;;;;;;;13.01;61.06;102537.19;5487996;26;20125;-47
2024/04/10 05:02:10;;;;;;;13.40;2.15;;;;;;;13.06;61.02;102538.22;5488222;26;20032;-48
2024/04/10 05:07:19;;;;;;;12.35;2.20;;;;;;;13.01;61.17;102553.78;5485746;26;20017;-46
2024/04/10 05:09:49;;;;;;;18.58;2.10;;;;;;;12.89;61.58;102561.28;5485388;26;20762;-47
2024/04/10 05:12:15;;;;;;;13.65;2.28;;;;;;;13.26;60.00;102560.69;5486054;26;19998;-45
2024/04/10 05:14:40;;;;;;;10.63;2.40;;;;;;;13.32;59.99;102565.22;5486155;26;20445;-45
2024/04/10 05:17:06;;;;;;;13.73;2.72;;;;;;;12.98;60.75;102566.81;5486867;26;20071;-43
2024/04/10 05:19:31;;;;;;;15.13;2.47;;;;;;;13.09;60.57;102572.34;5486379;26;20517;-46
2024/04/10 05:21:56;;;;;;;13.77;2.13;;;;;;;12.75;61.38;102575.66;5486053;26;20703;-45
2024/04/10 05:24:23;;;;;;;15.95;2.33;;;;;;;12.90;61.92;102584.00;5485915;26;20445;-47
2024/04/10 05:26:49;;;;;;;14.18;2.60;;;;;;;12.95;61.10;102595.50;5485095;26;20002;-48
2024/04/10 05:29:14;;;;;;;10.77;2.35;;;;;;;12.95;61.26;102605.97;5487252;26;20012;-46
2024/04/10 05:31:40;;;;;;;14.48;2.30;;;;;;;12.68;61.52;102607.72;5487649;26;20441;-44
2024/04/10 05:34:06;;;;;;;16.23;2.40;;;;;;;13.07;60.90;102613.31;5487679;26;20013;-47
2024/04/10 05:36:31;;;;;;;10.68;2.20;;;;;;;13.15;60.35;102609.25;5486521;26;19998;-44
2024/04/10 05:39:00;;;;;;;12.73;2.10;;;;;;;12.97;60.76;102614.78;5485777;26;20009;-45
2024/04/10 05:41:25;;;;;;;11.10;2.17;;;;;;;13.01;60.47;102618.34;5485559;26;20070;-45
2024/04/10 05:43:50;;;;;;;18.92;2.03;;;;;;;12.94;60.57;102622.50;5485014;26;20332;-45
2024/04/10 05:46:16;;;;;;;13.18;1.98;;;;;;;13.18;60.28;102622.41;5485285;26;20013;-52
2024/04/10 05:48:41;;;;;;;13.90;1.92;;;;;;;12.98;60.59;102637.50;5485281;26;20391;-45
2024/04/10 05:51:08;;;;;;;13.13;2.20;;;;;;;12.95;60.54;102641.72;5485732;26;20468;-45
2024/04/10 05:53:33;;;;;;;12.43;2.22;;;;;;;13.17;59.72;102641.59;5484194;26;20012;-44
2024/04/10 05:56:05;;;;;;;11.05;2.20;;;;;;;13.32;59.12;102644.69;5484583;26;20010;-44
2024/04/10 05:58:35;;;;;;;16.38;2.20;;;;;;;13.58;58.78;102649.81;5484405;26;19998;-46
2024/04/10 06:01:10;;;;;;;11.95;2.33;;;;;;;13.44;58.51;102667.75;5483850;26;20341;-49
2024/04/10 06:03:35;;;;;;;;;;;;;;;13.48;58.58;102661.72;5485477;26;20141;-45
2024/04/10 06:06:15;;;;;;;11.32;2.38;;;;;;;13.50;57.89;102652.19;5484585;26;19928;-44
2024/04/10 06:08:43;;;;;;;15.18;3.72;;;;;;;13.31;57.93;102655.09;5484984;26;20016;-47
2024/04/10 06:11:09;;;;;;;13.73;3.15;;;;;;;13.26;58.56;102659.31;5485064;26;20025;-47
2024/04/10 06:13:35;;;;;;;12.45;2.88;;;;;;;13.26;58.62;102667.19;5484520;26;20388;-45
2024/04/10 06:16:01;;;;;;;12.82;2.33;;;;;;;13.58;58.33;102663.81;5485027;26;20012;-46
2024/04/10 06:18:27;;;;;;;9.43;2.00;;;;;;;13.57;58.30;102658.50;5485429;26;20307;-46
2024/04/10 06:21:03;;;;;;;9.15;1.88;;;;;;;13.53;57.60;102662.78;5484459;26;19998;-45
2024/04/10 06:23:29;;;;;;;12.05;2.10;;;;;;;13.64;58.36;102677.09;5485173;26;20517;-45
2024/04/10 06:25:55;;;;;;;14.48;2.42;;;;;;;13.79;57.23;102672.28;5484347;26;20344;-45
2024/04/10 06:28:20;;;;;;;9.90;1.98;;;;;;;13.87;55.94;102674.22;5486299;26;19994;-44
2024/04/10 06:30:46;;;;;;;8.75;1.98;;;;;;;14.07;56.29;102673.97;5486731;26;19998;-47
2024/04/10 06:33:14;;;;;;;9.07;1.60;;;;;;;14.36;54.30;102679.97;5489342;26;20017;-44
2024/04/10 06:35:42;;;;;;;10.90;1.67;;;;;;;14.82;53.57;102682.06;5486228;26;19998;-45
2024/04/10 06:38:08;;;;;;;11.82;1.65;;;;;;;14.87;52.09;102693.59;5485626;26;20095;-47
2024/04/10 06:40:33;;;;;;;12.73;2.17;;;;;;;15.03;52.32;102693.09;5490640;26;20010;-46
2024/04/10 06:42:58;;;;;;;14.07;1.60;;;;;;;15.82;51.43;102686.13;5493604;26;20013;-49
2024/04/10 06:45:23;;;;;;;10.35;1.70;;;;;;;16.37;48.91;102687.22;5488103;26;20005;-43
2024/04/10 06:47:49;;;;;;;9.60;1.70;;;;;;;16.47;47.43;102695.28;5487990;26;20464;-45
2024/04/10 06:50:14;;;;;;;11.73;1.90;;;;;;;16.40;49.02;102687.28;5485745;26;20353;-45
2024/04/10 06:52:39;;;;;;;11.25;2.15;;;;;;;16.69;46.13;102698.34;5484980;26;20340;-45
2024/04/10 06:55:06;;;;;;;7.93;1.90;;;;;;;18.04;42.98;102695.97;5485018;26;19998;-45
2024/04/10 06:57:32;;;;;;;9.30;1.95;;;;;;;17.26;44.08;102709.81;5483690;26;20445;-45
2024/04/10 07:00:03;;;;;;;8.90;1.90;;;;;;;16.63;45.31;102715.84;5484325;26;19998;-47
2024/04/10 07:02:29;;;;;;;8.48;1.90;;;;;;;16.77;45.49;102721.31;5484267;26;20017;-44
2024/04/10 07:04:54;;;;;;;10.20;1.88;;;;;;;16.87;44.98;102725.91;5483689;26;20336;-45
2024/04/10 07:07:19;;;;;;;10.80;1.60;;;;;;;17.19;44.19;102731.69;5484343;26;20057;-48
2024/04/10 07:09:44;;;;;;;8.30;1.58;;;;;;;16.83;44.20;102733.72;5484659;26;20005;-45
2024/04/10 07:12:10;;;;;;;8.98;1.50;;;;;;;18.32;41.95;102736.75;5485619;26;20013;-45
2024/04/10 07:14:36;;;;;;;7.45;1.50;;;;;;;19.51;39.36;102733.47;5488231;26;20475;-45
2024/04/10 07:17:04;;;;;;;7.53;1.60;;;;;;;19.09;39.15;102733.13;5488556;26;19998;-46
2024/04/10 07:19:34;;;;;;;7.90;1.58;;;;;;;19.77;36.67;102733.56;5488676;26;20009;-45
2024/04/10 07:22:00;;;;;;;11.25;2.00;;;;;;;17.75;40.42;102742.19;5489472;26;20009;-45
2024/04/10 07:24:25;;;;;;;10.07;1.60;;;;;;;17.48;40.14;102750.59;5488812;26;19998;-48
2024/04/10 07:26:50;;;;;;;6.55;1.77;;;;;;;16.32;43.14;102758.19;5487506;26;20336;-51
2024/04/10 07:29:15;;;;;;;10.70;1.73;;;;;;;16.52;43.75;102758.59;5487912;26;20010;-48
2024/04/10 07:31:41;;;;;;;6.40;1.80;;;;;;;16.07;44.63;102764.72;5487036;26;20001;-46
2024/04/10 07:34:07;;;;;;;8.75;1.80;;;;;;;16.86;42.37;102762.75;5487476;26;20010;-47
2024/04/10 07:36:33;;;;;;;9.63;1.52;;;;;;;16.89;42.87;102760.19;5486618;26;20018;-45
2024/04/10 07:38:58;;;;;;;8.52;1.85;;;;;;;16.48;44.12;102777.81;5487461;26;20507;-44
2024/04/10 07:41:24;;;;;;;6.00;1.50;;;;;;;16.50;43.88;102779.63;5488332;26;20009;-45
2024/04/10 07:43:51;;;;;;;10.88;1.85;;;;;;;15.91;45.55;102780.16;5487482;26;20484;-44
2024/04/10 07:46:18;;;;;;;8.40;1.60;;;;;;;17.94;41.47;102775.00;5487494;26;20044;-45
2024/04/10 07:48:47;;;;;;;9.90;1.50;;;;;;;16.19;43.23;102783.38;5487979;26;20009;-43
2024/04/10 07:51:13;;;;;;;11.77;2.00;;;;;;;15.97;44.92;102796.97;5487478;26;20026;-46
2024/04/10 07:53:40;;;;;;;7.72;1.70;;;;;;;16.23;44.49;102786.94;5486891;26;20002;-44
2024/04/10 07:56:07;;;;;;;8.85;1.63;;;;;;;15.75;46.79;102786.78;5487090;26;20009;-47
2024/04/10 07:58:33;;;;;;;8.95;1.80;;;;;;;15.78;46.03;102792.13;5486321;26;20517;-46
2024/04/10 08:00:59;;;;;;;10.32;1.58;;;;;;;16.30;45.50;102795.88;5487346;26;20017;-46
2024/04/10 08:03:26;;;;;;;6.57;1.77;;;;;;;15.68;45.03;102804.16;5487264;26;20448;-47
2024/04/10 08:05:55;;;;;;;10.60;1.90;;;;;;;15.69;44.48;102807.69;5485360;26;20051;-45
2024/04/10 08:08:21;;;;;;;6.45;1.35;;;;;;;15.74;44.63;102813.94;5488813;26;20009;-42
2024/04/10 08:10:47;;;;;;;9.18;1.50;;;;;;;15.30;44.74;102805.88;5488246;26;19999;-45
2024/04/10 08:13:14;;;;;;;6.75;1.60;;;;;;;15.51;44.88;102812.47;5488336;26;20010;-44
2024/04/10 08:15:39;;;;;;;6.15;1.40;;;;;;;15.94;44.34;102817.91;5484626;26;19994;-48
2024/04/10 08:18:05;;;;;;;9.13;1.30;;;;;;;15.44;45.70;102824.59;5486808;26;20028;-46
2024/04/10 08:20:31;;;;;;;6.72;1.52;;;;;;;15.99;45.61;102818.00;5486721;26;20537;-51
2024/04/10 08:22:56;;;;;;;11.15;1.88;;;;;;;15.40;45.63;102826.28;5486938;26;20013;-47
2024/04/10 08:25:21;;;;;;;9.60;1.60;;;;;;;14.92;46.92;102819.75;5483745;26;19998;-47
2024/04/10 08:27:47;;;;;;;6.30;1.50;;;;;;;15.06;46.84;102825.38;5486259;26;20075;-48
2024/04/10 08:30:12;;;;;;;9.65;1.70;;;;;;;15.11;49.08;102829.00;5487608;26;20002;-50
2024/04/10 08:32:37;;;;;;;10.15;1.70;;;;;;;15.33;47.50;102821.69;5487664;26;20439;-44
2024/04/10 08:35:04;;;;;;;8.77;1.80;;;;;;;14.74;48.85;102837.66;5487388;26;20012;-46
2024/04/10 08:37:30;;;;;;;7.72;1.50;;;;;;;14.57;49.40;102839.81;5487423;26;20006;-48
2024/04/10 08:39:55;;;;;;;7.50;1.83;;;;;;;14.72;48.30;102842.84;5522943;26;19997;-49
2024/04/10 08:42:20;;;;;;;10.27;1.80;;;;;;;14.98;47.52;102840.94;5523105;26;20009;-46
2024/04/10 08:44:51;;;;;;;9.18;1.50;;;;;;;15.26;45.64;102850.41;5522600;26;20037;-45
2024/04/10 08:47:17;;;;;;;6.93;1.40;;;;;;;15.24;46.34;102842.50;5522645;26;20029;-47
2024/04/10 08:49:43;;;;;;;6.75;1.40;;;;;;;15.03;47.11;102842.84;5522662;26;20471;-46
2024/04/10 08:52:08;;;;;;;8.75;1.50;;;;;;;15.51;45.84;102839.66;5523475;26;20025;-44
2024/04/10 08:54:35;;;;;;;7.22;1.55;;;;;;;15.53;44.43;102845.00;5522534;26;19997;-47
2024/04/10 08:57:02;;;;;;;7.30;1.60;;;;;;;15.75;44.64;102848.16;5523395;26;20001;-47
2024/04/10 08:59:31;;;;;;;11.90;1.60;;;;;;;15.32;45.89;102853.19;5523516;26;20002;-47
2024/04/10 09:01:57;;;;;;;9.80;1.55;;;;;;;15.46;44.91;102864.94;5485742;26;20017;-46
2024/04/10 09:04:24;;;;;;;7.25;1.13;;;;;;;15.37;44.15;102857.72;5485988;26;20002;-47
2024/04/10 09:06:59;;;;;;;8.55;1.80;;;;;;;15.30;44.22;102868.06;5485511;26;20487;-45
2024/04/10 09:09:24;;;;;;;7.40;1.25;;;;;;;15.40;43.95;102870.94;5486126;26;20006;-48
2024/04/10 09:11:53;;;;;;;5.80;1.13;;;;;;;15.58;44.22;102867.91;5485273;26;20074;-47
2024/04/10 09:14:18;;;;;;;11.02;1.25;;;;;;;15.90;43.76;102868.69;5486252;26;20709;-44
2024/04/10 09:16:44;;;;;;;5.70;1.40;;;;;;;16.22;42.62;102869.44;5485047;26;20002;-45
2024/04/10 09:19:10;;;;;;;6.95;1.33;;;;;;;16.09;40.92;102876.16;5486165;26;20014;-46
2024/04/10 09:21:36;;;;;;;8.00;1.13;;;;;;;15.55;42.14;102881.00;5485581;26;19999;-45
2024/04/10 09:24:03;;;;;;;9.90;1.40;;;;;;;15.34;42.00;102893.56;5486054;26;20077;-44
2024/04/10 09:26:28;;;;;;;6.25;1.00;;;;;;;15.83;41.50;102878.19;5485258;26;20071;-44
2024/04/10 09:29:09;;;;;;;7.88;1.88;;;;;;;16.29;41.64;102876.56;5485283;26;20393;-44
2024/04/10 09:31:38;;;;;;;7.30;1.35;;;;;;;15.77;41.91;102882.41;5485240;26;20091;-48
2024/04/10 09:34:03;;;;;;;6.75;1.23;;;;;;;15.05;41.37;102884.91;5485562;26;20013;-48
2024/04/10 09:36:34;;;;;;;12.00;1.20;;;;;;;15.90;40.70;102879.22;5485446;26;20009;-45
2024/04/10 09:39:00;;;;;;;6.45;1.10;;;;;;;16.22;40.57;102880.81;5485085;26;19998;-50
2024/04/10 09:41:28;;;;;;;9.52;1.30;;;;;;;16.58;40.51;102891.25;5486008;26;19998;-49
2024/04/10 09:43:58;;;;;;;9.35;1.00;;;;;;;16.50;39.34;102884.03;5485125;26;20002;-46
2024/04/10 09:46:33;;;;;;;4.38;1.00;;;;;;;15.89;40.40;102900.22;5485299;26;20049;-47
2024/04/10 09:49:08;;;;;;;6.50;1.10;;;;;;;15.73;39.86;102906.84;5485140;26;20005;-46
2024/04/10 09:51:37;;;;;;;5.40;1.00;;;;;;;15.93;38.72;102902.94;5485040;26;20002;-48
2024/04/10 09:54:03;;;;;;;7.00;1.17;;;;;;;15.88;39.87;102899.31;5485511;26;20003;-48
2024/04/10 09:56:28;;;;;;;7.25;1.20;;;;;;;15.70;41.22;102899.78;5485485;26;20071;-45
2024/04/10 09:58:54;;;;;;;6.45;1.10;;;;;;;16.09;40.29;102905.09;5485270;26;20029;-47
2024/04/10 10:01:23;;;;;;;7.28;1.10;;;;;;;16.24;37.95;102909.81;5485809;26;20009;-46
2024/04/10 10:03:58;;;;;;;5.43;1.20;;;;;;;16.19;39.20;102906.19;5484981;26;20075;-51
2024/04/10 10:06:30;;;;;;;5.15;1.00;;;;;;;16.18;39.12;102897.41;5485322;26;20398;-45
2024/04/10 10:08:56;;;;;;;6.60;1.10;;;;;;;16.02;38.40;102900.53;5485140;26;19999;-44
2024/04/10 10:11:25;;;;;;;5.10;1.10;;;;;;;15.93;38.53;102899.41;5486898;26;20010;-46
2024/04/10 10:14:03;;;;;;;4.72;1.20;;;;;;;16.27;38.19;102904.63;5486051;26;20090;-43
2024/04/10 10:16:31;;;;;;;6.32;1.35;;;;;;;16.52;37.44;102904.31;5486950;26;20075;-49
2024/04/10 10:19:00;;;;;;;2.88;0.88;;;;;;;16.43;36.50;102904.09;5486114;26;20364;-45
2024/04/10 10:21:30;;;;;;;3.33;0.90;;;;;;;16.11;36.36;102911.25;5487283;26;20020;-44
2024/04/10 10:24:02;;;;;;;4.68;1.10;;;;;;;16.75;34.42;102906.53;5486445;26;20002;-46
2024/04/10 10:26:28;;;;;;;3.00;0.80;;;;;;;16.34;33.84;102901.28;5486596;26;20002;-46
2024/04/10 10:29:06;;;;;;;6.03;0.93;;;;;;;16.11;35.42;102916.53;5486522;26;20005;-45
2024/04/10 10:31:32;;;;;;;3.63;0.82;;;;;;;16.06;35.31;102912.91;5485418;26;20463;-47
2024/04/10 10:33:59;;;;;;;4.47;0.90;;;;;;;16.51;34.10;102910.41;5485774;26;19998;-46
2024/04/10 10:36:24;;;;;;;5.43;0.90;;;;;;;16.17;33.55;102919.28;5485309;26;20006;-49
2024/04/10 10:39:08;;;;;;;4.90;1.00;;;;;;;16.25;34.57;102922.13;5482471;26;20028;-46
2024/04/10 10:41:35;;;;;;;3.97;0.90;;;;;;;16.41;35.21;102936.50;5485203;26;20042;-46
2024/04/10 10:44:00;;;;;;;5.30;0.90;;;;;;;16.74;34.01;102925.84;5486022;26;20002;-49
2024/04/10 10:46:29;;;;;;;3.33;0.90;;;;;;;16.96;34.21;102922.75;5485737;26;20009;-43
2024/04/10 10:48:54;;;;;;;3.25;0.90;;;;;;;16.93;34.66;102926.25;5484601;26;20013;-46
2024/04/10 10:51:21;;;;;;;4.35;1.10;;;;;;;16.64;34.13;102940.56;5483966;26;20002;-44
2024/04/10 10:53:46;;;;;;;7.22;1.10;;;;;;;16.53;34.08;102940.28;5482063;26;19998;-45
2024/04/10 10:56:12;;;;;;;7.25;1.15;;;;;;;17.09;33.57;102926.53;5482867;26;20046;-45
2024/04/10 10:58:37;;;;;;;3.40;0.98;;;;;;;16.93;34.35;102942.06;5484641;26;19999;-44
2024/04/10 11:01:07;;;;;;;5.25;1.27;;;;;;;17.19;33.17;102925.88;5452992;26;20002;-44
2024/04/10 11:03:32;;;;;;;4.97;1.33;;;;;;;16.61;34.69;102935.22;5423183;26;20002;-45
2024/04/10 11:06:11;;;;;;;4.30;1.05;;;;;;;16.91;34.18;102921.78;5482801;26;20027;-46
2024/04/10 11:08:36;;;;;;;4.30;1.00;;;;;;;17.34;34.00;102929.66;5484138;26;20009;-44
2024/04/10 11:11:03;;;;;;;4.70;1.30;;;;;;;17.79;34.08;102916.41;5452841;26;19995;-45
2024/04/10 11:13:28;;;;;;;4.72;1.75;;;;;;;16.75;34.96;102922.34;5485285;26;20010;-45
2024/04/10 11:15:57;;;;;;;5.78;1.60;;;;;;;17.81;35.60;102916.41;5451094;26;20013;-47
2024/04/10 11:18:23;;;;;;;5.93;1.15;;;;;;;17.25;33.81;102918.06;5454224;26;20009;-44
2024/04/10 11:20:50;;;;;;;7.68;1.58;;;;;;;17.94;33.93;102913.09;5483114;26;19998;-45
2024/04/10 11:23:16;;;;;;;6.70;1.30;;;;;;;17.72;34.54;102914.53;5485107;26;20333;-44